createdAt,value
2023-02-15T00:00:20.770Z,13.90
2023-02-15T00:02:49.861Z,14.50
2023-02-15T00:05:16.846Z,14.60
2023-02-15T00:07:49.434Z,13.90
2023-02-15T00:10:18.958Z,14.90
2023-02-15T00:12:48.395Z,15.00
2023-02-15T00:15:19.007Z,11.90
2023-02-15T00:17:48.720Z,12.40
2023-02-15T00:20:16.748Z,13.70
2023-02-15T00:22:43.222Z,15.50
2023-02-15T00:25:09.806Z,14.20
2023-02-15T00:27:36.346Z,16.00
2023-02-15T00:30:06.334Z,16.40
2023-02-15T00:32:39.142Z,15.80
2023-02-15T00:35:20.838Z,15.00
2023-02-15T00:37:47.665Z,12.10
2023-02-15T00:40:25.614Z,12.40
2023-02-15T00:42:52.642Z,12.80
2023-02-15T00:45:19.571Z,14.20
2023-02-15T00:47:46.365Z,13.80
2023-02-15T00:50:16.099Z,14.50
2023-02-15T00:52:46.239Z,14.90
2023-02-15T00:55:12.778Z,14.70
2023-02-15T00:57:39.640Z,13.70
2023-02-15T01:00:12.620Z,12.10
2023-02-15T01:02:39.461Z,12.40
2023-02-15T01:05:15.573Z,12.90
2023-02-15T01:07:44.613Z,13.90
2023-02-15T01:10:11.593Z,14.00
2023-02-15T01:12:38.597Z,13.90
2023-02-15T01:15:07.852Z,13.60
2023-02-15T01:17:34.547Z,14.00
2023-02-15T01:20:06.636Z,14.80
2023-02-15T01:22:33.866Z,11.30
2023-02-15T01:25:01.887Z,12.00
2023-02-15T01:27:32.397Z,13.50
2023-02-15T01:30:00.215Z,14.60
2023-02-15T01:32:27.219Z,15.40
2023-02-15T01:34:54.762Z,14.80
2023-02-15T01:37:25.096Z,15.50
2023-02-15T01:39:51.656Z,16.60
2023-02-15T01:42:25.047Z,15.70
2023-02-15T01:45:06.255Z,12.80
2023-02-15T01:47:41.590Z,12.80
2023-02-15T01:50:15.711Z,13.60
2023-02-15T01:52:50.242Z,14.70
2023-02-15T01:55:17.045Z,14.10
2023-02-15T01:57:44.244Z,14.30
2023-02-15T02:00:12.737Z,14.50
2023-02-15T02:02:44.481Z,13.70
2023-02-15T02:05:11.933Z,13.70
2023-02-15T02:07:49.198Z,12.40
2023-02-15T02:10:19.793Z,12.60
2023-02-15T02:12:47.506Z,14.30
2023-02-15T02:15:14.232Z,14.10
2023-02-15T02:18:19.199Z,15.60
2023-02-15T02:20:54.295Z,14.50
2023-02-15T02:23:54.736Z,14.70
2023-02-15T02:26:42.325Z,15.10
2023-02-15T02:29:43.211Z,14.80
2023-02-15T02:32:42.427Z,12.00
2023-02-15T02:35:50.608Z,12.10
2023-02-15T02:39:03.327Z,13.50
2023-02-15T02:41:40.396Z,14.80
2023-02-15T02:44:26.528Z,14.30
2023-02-15T02:46:59.361Z,15.00
2023-02-15T02:49:38.314Z,15.10
2023-02-15T02:52:24.673Z,14.50
2023-02-15T02:54:51.853Z,15.20
2023-02-15T02:57:18.423Z,13.20
2023-02-15T02:59:48.641Z,13.80
2023-02-15T03:02:18.083Z,13.40
2023-02-15T03:04:47.562Z,14.80
2023-02-15T03:07:22.291Z,15.00
2023-02-15T03:10:06.332Z,14.40
2023-02-15T03:15:23.488Z,14.50
2023-02-15T03:17:59.627Z,15.10
2023-02-15T03:20:32.061Z,12.20
2023-02-15T03:23:23.429Z,12.10
2023-02-15T03:25:59.660Z,14.10
2023-02-15T03:28:40.006Z,16.00
2023-02-15T03:31:23.146Z,17.10
2023-02-15T03:33:56.064Z,16.00
2023-02-15T03:36:58.375Z,15.90
2023-02-15T03:39:42.209Z,16.00
2023-02-15T03:42:24.959Z,13.20
2023-02-15T03:45:00.474Z,13.00
2023-02-15T03:47:40.824Z,13.90
2023-02-15T03:50:49.219Z,15.10
2023-02-15T03:53:19.149Z,15.50
2023-02-15T03:55:50.845Z,15.90
2023-02-15T03:58:37.284Z,16.20
2023-02-15T04:01:44.617Z,15.90
2023-02-15T04:04:38.504Z,17.10
2023-02-15T04:07:08.449Z,14.60
2023-02-15T04:09:53.511Z,14.20
2023-02-15T04:12:21.664Z,14.70
2023-02-15T04:15:10.006Z,16.70
2023-02-15T04:17:43.295Z,16.40
2023-02-15T04:20:38.848Z,18.00
2023-02-15T04:23:25.827Z,16.30
2023-02-15T04:25:52.628Z,17.30
2023-02-15T04:28:23.315Z,16.60
2023-02-15T04:30:53.120Z,14.60
2023-02-15T04:33:40.999Z,13.70
2023-02-15T04:36:07.361Z,15.60
2023-02-15T04:38:35.440Z,17.00
2023-02-15T04:41:01.782Z,17.00
2023-02-15T04:43:28.993Z,17.50
2023-02-15T04:45:55.903Z,17.20
2023-02-15T04:48:22.917Z,17.20
2023-02-15T04:50:49.276Z,16.50
2023-02-15T04:53:17.824Z,14.70
2023-02-15T04:55:44.425Z,13.70
2023-02-15T04:58:14.368Z,14.80
2023-02-15T05:00:44.694Z,15.30
2023-02-15T05:03:10.915Z,16.20
2023-02-15T05:05:38.935Z,17.10
2023-02-15T05:08:05.455Z,16.50
2023-02-15T05:10:36.640Z,18.40
2023-02-15T05:13:12.445Z,17.70
2023-02-15T05:15:50.953Z,16.50
2023-02-15T05:18:19.439Z,15.00
2023-02-15T05:20:46.264Z,16.90
2023-02-15T05:23:13.096Z,18.50
2023-02-15T05:25:58.273Z,19.30
2023-02-15T05:28:30.687Z,18.70
2023-02-15T05:31:10.734Z,18.40
2023-02-15T05:36:08.494Z,17.70
2023-02-15T05:38:39.179Z,16.80
2023-02-15T05:41:10.872Z,15.70
2023-02-15T05:43:38.518Z,16.30
2023-02-15T05:46:05.756Z,17.70
2023-02-15T05:48:32.907Z,19.50
2023-02-15T05:51:01.017Z,20.50
2023-02-15T05:53:29.176Z,19.00
2023-02-15T05:55:59.816Z,20.30
2023-02-15T05:58:32.039Z,20.60
2023-02-15T06:00:58.622Z,16.60
2023-02-15T06:03:26.272Z,16.50
2023-02-15T06:05:52.847Z,16.90
2023-02-15T06:08:22.243Z,18.90
2023-02-15T06:10:48.904Z,19.80
2023-02-15T06:13:15.401Z,20.30
2023-02-15T06:15:45.437Z,19.30
2023-02-15T06:18:13.070Z,20.70
2023-02-15T06:20:41.975Z,20.60
2023-02-15T06:23:08.608Z,16.40
2023-02-15T06:25:44.049Z,16.20
2023-02-15T06:28:12.688Z,17.20
2023-02-15T06:30:39.543Z,19.00
2023-02-15T06:33:10.072Z,18.30
2023-02-15T06:35:38.295Z,20.70
2023-02-15T06:38:04.821Z,20.90
2023-02-15T06:40:34.200Z,20.60
2023-02-15T06:43:02.291Z,19.60
2023-02-15T06:45:29.066Z,17.50
2023-02-15T06:47:56.685Z,17.90
2023-02-15T06:50:23.074Z,17.90
2023-02-15T06:52:58.515Z,20.90
2023-02-15T06:55:25.554Z,19.10
2023-02-15T06:57:53.656Z,18.70
2023-02-15T07:00:22.406Z,19.80
2023-02-15T07:02:57.899Z,19.10
2023-02-15T07:05:25.494Z,19.10
2023-02-15T07:07:58.433Z,15.70
2023-02-15T07:10:25.772Z,16.00
2023-02-15T07:12:52.716Z,17.10
2023-02-15T07:15:21.045Z,17.90
2023-02-15T07:17:48.481Z,18.50
2023-02-15T07:20:17.748Z,18.60
2023-02-15T07:22:45.192Z,19.30
2023-02-15T07:25:12.189Z,19.50
2023-02-15T07:27:39.125Z,18.40
2023-02-15T07:30:06.825Z,18.80
2023-02-15T07:32:57.459Z,17.10
2023-02-15T07:35:24.013Z,17.80
2023-02-15T07:37:50.587Z,17.10
2023-02-15T07:40:22.699Z,17.60
2023-02-15T07:42:53.993Z,18.50
2023-02-15T07:45:40.059Z,16.30
2023-02-15T07:48:06.744Z,18.10
2023-02-15T07:50:34.036Z,15.30
2023-02-15T07:53:06.353Z,16.40
2023-02-15T07:55:33.356Z,16.40
2023-02-15T07:58:00.450Z,17.80
2023-02-15T08:00:26.976Z,15.90
2023-02-15T08:03:14.614Z,15.90
2023-02-15T08:05:55.146Z,16.90
2023-02-15T08:08:30.990Z,16.90
2023-02-15T08:11:26.605Z,16.70
2023-02-15T08:13:59.727Z,16.10
2023-02-15T08:16:28.836Z,15.90
2023-02-15T08:18:58.916Z,15.20
2023-02-15T08:21:26.931Z,15.60
2023-02-15T08:23:56.818Z,15.70
2023-02-15T08:26:25.196Z,14.50
2023-02-15T08:28:55.560Z,15.00
2023-02-15T08:31:22.404Z,13.80
2023-02-15T08:33:59.368Z,13.60
2023-02-15T08:36:29.683Z,13.90
2023-02-15T08:38:58.379Z,13.70
2023-02-15T08:41:26.836Z,13.90
2023-02-15T08:43:54.989Z,14.30
2023-02-15T08:46:23.129Z,13.30
2023-02-15T08:48:50.008Z,14.30
2023-02-15T08:51:28.018Z,13.40
2023-02-15T08:53:58.102Z,13.50
2023-02-15T08:56:29.404Z,12.80
2023-02-15T08:58:58.960Z,13.30
2023-02-15T09:01:33.619Z,11.90
2023-02-15T09:04:01.966Z,13.90
2023-02-15T09:06:38.428Z,13.40
2023-02-15T09:09:09.181Z,11.70
2023-02-15T09:11:41.029Z,11.50
2023-02-15T09:14:09.827Z,11.30
2023-02-15T09:16:37.782Z,13.90
2023-02-15T09:20:42.067Z,11.90
2023-02-15T09:23:16.203Z,11.80
2023-02-15T09:25:49.165Z,12.50
2023-02-15T09:28:16.231Z,11.80
2023-02-15T09:30:43.590Z,14.10
2023-02-15T09:33:12.035Z,16.10
2023-02-15T09:35:43.345Z,12.20
2023-02-15T09:38:13.104Z,12.60
2023-02-15T09:40:44.761Z,14.20
2023-02-15T09:43:19.047Z,11.80
2023-02-15T09:45:54.523Z,11.40
2023-02-15T09:48:36.978Z,12.50
2023-02-15T09:51:23.774Z,12.80
2023-02-15T09:54:10.500Z,10.60
2023-02-15T09:56:38.599Z,10.20
2023-02-15T09:59:18.218Z,11.60
2023-02-15T10:02:05.011Z,11.90
2023-02-15T10:04:32.250Z,11.70
2023-02-15T10:07:05.454Z,10.70
2023-02-15T10:09:45.543Z,11.50
2023-02-15T10:12:37.700Z,10.40
2023-02-15T10:15:17.669Z,10.50
2023-02-15T10:17:50.784Z,10.80
2023-02-15T10:20:40.414Z,10.50
2023-02-15T10:23:44.873Z,10.10
2023-02-15T10:26:23.863Z,10.90
2023-02-15T10:28:58.503Z,11.50
2023-02-15T10:31:44.413Z,11.20
2023-02-15T10:34:41.389Z,10.40
2023-02-15T10:37:36.258Z,10.60
2023-02-15T10:40:09.762Z,10.30
2023-02-15T10:42:40.824Z,10.70
2023-02-15T10:45:42.992Z,10.90
2023-02-15T10:48:25.822Z,11.40
2023-02-15T10:51:00.977Z,10.90
2023-02-15T10:53:36.878Z,11.00
2023-02-15T10:56:26.251Z,10.60
2023-02-15T10:59:12.760Z,12.80
2023-02-15T11:02:08.132Z,11.80
2023-02-15T11:04:42.599Z,11.70
2023-02-15T11:07:16.874Z,11.50
2023-02-15T11:09:50.503Z,12.70
2023-02-15T11:12:20.315Z,12.70
2023-02-15T11:14:55.446Z,13.10
2023-02-15T11:17:37.308Z,13.50
2023-02-15T11:20:23.118Z,12.80
2023-02-15T11:22:51.104Z,12.00
2023-02-15T11:25:25.578Z,11.20
2023-02-15T11:28:05.050Z,11.00
2023-02-15T11:30:45.496Z,11.60
2023-02-15T11:33:19.531Z,11.40
2023-02-15T11:36:06.597Z,11.30
2023-02-15T11:38:33.866Z,11.90
2023-02-15T11:41:04.838Z,12.20
2023-02-15T11:43:44.774Z,13.00
2023-02-15T11:46:13.186Z,12.00
2023-02-15T11:48:40.571Z,11.30
2023-02-15T11:51:09.993Z,10.70
2023-02-15T11:53:40.036Z,11.00
2023-02-15T11:56:17.962Z,11.00
2023-02-15T11:59:11.412Z,10.70
2023-02-15T12:01:45.664Z,11.80
2023-02-15T12:04:35.863Z,11.80
2023-02-15T12:07:13.397Z,11.30
2023-02-15T12:09:51.916Z,10.90
2023-02-15T12:12:29.132Z,10.90
2023-02-15T12:14:59.012Z,12.00
2023-02-15T12:17:32.914Z,12.20
2023-02-15T12:20:16.970Z,12.60
2023-02-15T12:22:50.557Z,11.60
2023-02-15T12:25:30.355Z,10.60
2023-02-15T12:28:07.240Z,10.10
2023-02-15T12:30:37.462Z,9.40
2023-02-15T12:33:16.040Z,8.70
2023-02-15T12:35:42.955Z,8.50
2023-02-15T12:38:10.518Z,7.60
2023-02-15T12:40:38.283Z,12.10
2023-02-15T12:43:09.903Z,11.00
2023-02-15T12:45:38.531Z,10.50
2023-02-15T12:48:24.804Z,8.70
2023-02-15T12:51:08.958Z,8.40
2023-02-15T12:53:37.804Z,7.90
2023-02-15T12:56:08.308Z,8.60
2023-02-15T13:01:26.641Z,9.10
2023-02-15T13:06:38.388Z,7.30
2023-02-15T13:09:20.705Z,8.00
2023-02-15T13:11:57.024Z,7.70
2023-02-15T13:15:23.432Z,7.60
2023-02-15T13:17:51.187Z,8.60
2023-02-15T13:20:20.775Z,12.50
2023-02-15T13:22:49.040Z,9.70
2023-02-15T13:25:28.726Z,6.90
2023-02-15T13:27:58.049Z,6.60
2023-02-15T13:30:42.095Z,6.80
2023-02-15T13:33:27.400Z,6.10
2023-02-15T13:36:32.440Z,7.70
2023-02-15T13:39:16.876Z,7.70
2023-02-15T13:41:50.566Z,8.70
2023-02-15T13:44:57.890Z,8.00
2023-02-15T13:47:52.717Z,7.60
2023-02-15T13:50:54.991Z,9.10
2023-02-15T13:53:56.992Z,8.70
2023-02-15T13:56:45.881Z,7.80
2023-02-15T13:59:57.251Z,12.00
2023-02-15T14:02:41.904Z,8.90
2023-02-15T14:06:04.985Z,8.50
2023-02-15T14:08:36.992Z,10.90
2023-02-15T14:11:09.279Z,9.20
2023-02-15T14:13:56.923Z,7.60
2023-02-15T14:17:26.028Z,7.80
2023-02-15T14:20:18.721Z,13.60
2023-02-15T14:22:48.895Z,9.30
2023-02-15T14:25:29.538Z,8.50
2023-02-15T14:28:14.685Z,8.10
2023-02-15T14:30:44.585Z,8.40
2023-02-15T14:33:15.280Z,8.80
2023-02-15T14:35:43.933Z,8.90
2023-02-15T14:38:10.990Z,11.30
2023-02-15T14:41:15.924Z,11.60
2023-02-15T14:44:13.333Z,12.60
2023-02-15T14:47:15.827Z,17.10
2023-02-15T14:49:43.050Z,13.80
2023-02-15T14:52:29.713Z,13.40
2023-02-15T14:54:57.489Z,14.60
2023-02-15T14:57:37.323Z,14.90
2023-02-15T15:00:45.634Z,14.40
2023-02-15T15:03:27.781Z,17.70
2023-02-15T15:05:55.526Z,18.00
2023-02-15T15:08:27.798Z,16.60
2023-02-15T15:10:54.795Z,17.20
2023-02-15T15:13:31.274Z,17.50
2023-02-15T15:16:29.405Z,17.80
2023-02-15T15:19:10.156Z,18.10
2023-02-15T15:22:12.226Z,24.50
2023-02-15T15:25:00.872Z,24.80
2023-02-15T15:28:07.165Z,26.20
2023-02-15T15:31:04.974Z,24.70
2023-02-15T15:33:44.152Z,23.50
2023-02-15T15:36:50.739Z,24.80
2023-02-15T15:39:49.837Z,22.80
2023-02-15T15:43:07.812Z,25.70
2023-02-15T15:46:43.826Z,26.80
2023-02-15T15:49:16.587Z,34.70
2023-02-15T15:52:53.820Z,30.80
2023-02-15T15:55:33.745Z,29.00
2023-02-15T15:58:23.878Z,29.80
2023-02-15T16:01:45.672Z,30.10
2023-02-15T16:04:28.152Z,28.30
2023-02-15T16:06:55.521Z,28.00
2023-02-15T16:09:37.570Z,31.30
2023-02-15T16:12:06.233Z,30.70
2023-02-15T16:14:51.890Z,30.40
2023-02-15T16:18:02.734Z,31.50
2023-02-15T16:21:06.271Z,30.80
2023-02-15T16:23:53.773Z,31.90
2023-02-15T16:27:02.344Z,33.90
2023-02-15T16:29:37.126Z,34.20
2023-02-15T16:32:27.244Z,34.70
2023-02-15T16:35:03.087Z,37.20
2023-02-15T16:37:51.597Z,36.30
2023-02-15T16:40:24.999Z,37.10
2023-02-15T16:43:25.041Z,43.40
2023-02-15T16:46:22.145Z,35.40
2023-02-15T16:49:03.874Z,36.50
2023-02-15T16:52:52.881Z,42.60
2023-02-15T16:55:27.491Z,71.70
2023-02-15T16:58:20.038Z,53.20
2023-02-15T17:00:58.666Z,53.10
2023-02-15T17:03:51.536Z,50.10
2023-02-15T17:06:31.486Z,69.50
2023-02-15T17:09:11.587Z,70.40
2023-02-15T17:12:30.259Z,66.70
2023-02-15T17:15:55.559Z,66.00
2023-02-15T17:19:18.719Z,64.00
2023-02-15T17:22:20.909Z,50.40
2023-02-15T17:25:06.703Z,52.50
2023-02-15T17:27:36.179Z,55.90
2023-02-15T17:32:58.633Z,63.80
2023-02-15T17:35:35.169Z,64.30
2023-02-15T17:38:27.888Z,66.30
2023-02-15T17:41:04.740Z,70.60
2023-02-15T17:43:56.259Z,84.10
2023-02-15T17:46:40.799Z,84.60
2023-02-15T17:49:55.062Z,82.60
2023-02-15T17:52:47.678Z,81.80
2023-02-15T17:55:48.144Z,64.70
2023-02-15T17:59:09.495Z,65.30
2023-02-15T18:02:08.397Z,71.20
2023-02-15T18:05:03.694Z,82.30
2023-02-15T18:07:52.677Z,85.30
2023-02-15T18:10:38.829Z,89.20
2023-02-15T18:13:49.445Z,81.80
2023-02-15T18:16:27.084Z,76.40
2023-02-15T18:19:04.900Z,79.70
2023-02-15T18:21:45.797Z,84.50
2023-02-15T18:24:35.352Z,69.40
2023-02-15T18:27:28.243Z,72.60
2023-02-15T18:30:05.398Z,76.70
2023-02-15T18:32:46.120Z,80.90
2023-02-15T18:35:16.760Z,74.30
2023-02-15T18:37:50.594Z,76.80
2023-02-15T18:40:30.066Z,71.00
2023-02-15T18:43:05.974Z,67.70
2023-02-15T18:46:00.321Z,72.30
2023-02-15T18:48:51.323Z,68.00
2023-02-15T18:51:26.069Z,58.50
2023-02-15T18:53:56.461Z,60.90
2023-02-15T18:56:23.956Z,64.40
2023-02-15T18:58:53.867Z,78.50
2023-02-15T19:02:01.948Z,70.40
2023-02-15T19:05:18.864Z,75.70
2023-02-15T19:08:38.407Z,66.90
2023-02-15T19:11:37.177Z,68.90
2023-02-15T19:14:31.353Z,70.30
2023-02-15T19:17:43.990Z,58.50
2023-02-15T19:20:40.870Z,58.50
2023-02-15T19:23:31.379Z,60.90
2023-02-15T19:26:02.091Z,57.10
2023-02-15T19:29:25.614Z,54.00
2023-02-15T19:31:54.531Z,51.50
2023-02-15T19:34:53.700Z,53.20
2023-02-15T19:38:41.798Z,47.30
2023-02-15T19:42:00.353Z,41.80
2023-02-15T19:44:48.136Z,37.90
2023-02-15T19:48:13.348Z,35.10
2023-02-15T19:51:56.031Z,61.50
2023-02-15T19:55:23.088Z,44.70
2023-02-15T19:58:26.548Z,45.60
2023-02-15T20:02:07.012Z,42.60
2023-02-15T20:05:29.236Z,45.00
2023-02-15T20:08:47.496Z,36.50
2023-02-15T20:11:32.280Z,43.80
2023-02-15T20:14:33.936Z,59.10
2023-02-15T20:17:43.241Z,58.40
2023-02-15T20:21:30.982Z,53.30
2023-02-15T20:24:38.877Z,42.50
2023-02-15T20:27:46.877Z,41.10
2023-02-15T20:30:56.226Z,41.00
2023-02-15T20:33:51.958Z,31.50
2023-02-15T20:36:59.518Z,30.40
2023-02-15T20:39:52.801Z,34.40
2023-02-15T20:43:40.808Z,32.00
2023-02-15T20:46:34.070Z,28.70
2023-02-15T20:49:32.803Z,30.20
2023-02-15T20:52:23.196Z,32.80
2023-02-15T20:55:01.495Z,35.90
2023-02-15T20:58:14.124Z,37.00
2023-02-15T21:01:36.280Z,35.40
2023-02-15T21:05:36.486Z,36.10
2023-02-15T21:09:27.088Z,39.00
2023-02-15T21:12:52.783Z,53.70
2023-02-15T21:16:40.965Z,42.30
2023-02-15T21:20:42.328Z,29.60
2023-02-15T21:24:43.477Z,30.50
2023-02-15T21:28:51.514Z,27.50
2023-02-15T21:32:01.321Z,25.80
2023-02-15T21:35:55.032Z,26.70
2023-02-15T21:40:00.962Z,27.00
2023-02-15T21:43:34.493Z,26.60
2023-02-15T21:47:23.948Z,30.60
2023-02-15T21:51:30.505Z,33.30
2023-02-15T21:55:28.656Z,29.00
2023-02-15T21:59:20.762Z,31.10
2023-02-15T22:03:22.048Z,33.60
2023-02-15T22:10:54.325Z,27.00
2023-02-15T22:15:02.516Z,30.60
2023-02-15T22:19:10.661Z,27.00
2023-02-15T22:23:18.848Z,20.60
2023-02-15T22:27:20.880Z,23.80
2023-02-15T22:31:30.226Z,29.90
2023-02-15T22:35:38.469Z,30.90
2023-02-15T22:39:22.269Z,32.40
2023-02-15T22:43:31.604Z,27.50
2023-02-15T22:47:39.802Z,24.30
2023-02-15T22:51:47.932Z,18.60
2023-02-15T22:55:58.814Z,18.40
2023-02-15T22:59:37.665Z,20.20
2023-02-15T23:03:39.867Z,21.30
2023-02-15T23:07:28.173Z,21.20
2023-02-15T23:11:28.919Z,20.40
2023-02-15T23:15:37.110Z,22.20
2023-02-15T23:19:45.256Z,18.70
2023-02-15T23:23:53.420Z,19.20
2023-02-15T23:28:19.791Z,22.80
2023-02-15T23:32:25.798Z,25.70
2023-02-15T23:36:34.059Z,24.60
2023-02-15T23:40:40.803Z,24.10
2023-02-15T23:44:52.825Z,24.00
2023-02-15T23:49:16.064Z,23.60
2023-02-15T23:53:24.256Z,8.90
2023-02-15T23:57:38.565Z,19.50
